createdAt,value
2018-06-18T00:00:07.825Z,4.57
2018-06-18T00:02:35.879Z,3.80
2018-06-18T00:05:03.950Z,4.50
2018-06-18T00:07:32.040Z,4.20
2018-06-18T00:10:00.140Z,4.50
2018-06-18T00:12:28.177Z,5.53
2018-06-18T00:14:56.246Z,5.33
2018-06-18T00:17:24.286Z,4.60
2018-06-18T00:19:52.362Z,4.47
2018-06-18T00:22:20.413Z,4.50
2018-06-18T00:24:49.256Z,6.50
2018-06-18T00:27:17.373Z,5.10
2018-06-18T00:29:45.856Z,4.30
2018-06-18T00:32:13.914Z,5.63
2018-06-18T00:34:41.981Z,5.07
2018-06-18T00:37:10.189Z,3.80
2018-06-18T00:39:38.649Z,4.13
2018-06-18T00:42:07.245Z,4.30
2018-06-18T00:44:35.540Z,5.00
2018-06-18T00:47:03.606Z,4.70
2018-06-18T00:49:31.757Z,4.20
2018-06-18T00:52:00.825Z,5.10
2018-06-18T00:54:28.876Z,4.13
2018-06-18T00:56:56.919Z,4.33
2018-06-18T00:59:24.974Z,4.70
2018-06-18T01:01:53.025Z,4.50
2018-06-18T01:04:21.085Z,4.73
2018-06-18T01:06:49.121Z,4.60
2018-06-18T01:09:17.181Z,4.80
2018-06-18T01:11:45.253Z,4.40
2018-06-18T01:14:13.310Z,4.90
2018-06-18T01:16:41.383Z,5.27
2018-06-18T01:19:09.442Z,4.93
2018-06-18T01:21:37.555Z,5.50
2018-06-18T01:24:40.309Z,5.00
2018-06-18T01:27:08.406Z,4.70
2018-06-18T01:29:36.489Z,5.00
2018-06-18T01:32:04.536Z,5.13
2018-06-18T01:34:32.630Z,4.90
2018-06-18T01:37:00.616Z,5.17
2018-06-18T01:39:28.697Z,5.63
2018-06-18T01:41:56.830Z,5.90
2018-06-18T01:44:24.688Z,5.83
2018-06-18T01:46:52.611Z,6.37
2018-06-18T01:49:20.653Z,6.70
2018-06-18T01:51:48.729Z,6.90
2018-06-18T01:54:16.801Z,7.20
2018-06-18T01:56:44.865Z,8.30
2018-06-18T01:59:12.725Z,7.60
2018-06-18T02:01:40.789Z,8.10
2018-06-18T02:04:08.878Z,8.83
2018-06-18T02:06:36.749Z,9.47
2018-06-18T02:09:08.065Z,9.27
2018-06-18T02:11:37.150Z,10.40
2018-06-18T02:14:05.250Z,9.10
2018-06-18T02:16:33.305Z,8.97
2018-06-18T02:19:01.374Z,9.50
2018-06-18T02:21:29.416Z,9.50
2018-06-18T02:23:57.493Z,9.80
2018-06-18T02:26:25.369Z,9.73
2018-06-18T02:28:58.721Z,9.80
2018-06-18T02:31:32.103Z,9.73
2018-06-18T02:34:05.518Z,8.90
2018-06-18T02:36:39.074Z,8.30
2018-06-18T02:39:13.792Z,8.27
2018-06-18T02:41:42.565Z,8.27
2018-06-18T02:44:10.413Z,7.70
2018-06-18T02:46:38.494Z,8.67
2018-06-18T02:49:06.635Z,8.10
2018-06-18T02:51:35.314Z,7.93
2018-06-18T02:54:03.521Z,9.17
2018-06-18T02:56:41.194Z,8.40
2018-06-18T02:59:09.261Z,7.03
2018-06-18T03:01:37.322Z,7.00
2018-06-18T03:04:05.718Z,6.70
2018-06-18T03:06:33.768Z,6.80
2018-06-18T03:09:01.818Z,6.70
2018-06-18T03:11:30.089Z,7.00
2018-06-18T03:13:57.925Z,7.17
2018-06-18T03:16:25.997Z,7.83
2018-06-18T03:18:59.420Z,7.00
2018-06-18T03:21:32.724Z,7.17
2018-06-18T03:24:06.301Z,8.30
2018-06-18T03:26:39.717Z,8.60
2018-06-18T03:29:13.400Z,8.77
2018-06-18T03:31:42.861Z,7.63
2018-06-18T03:34:10.937Z,9.70
2018-06-18T03:36:39.214Z,9.43
2018-06-18T03:39:10.243Z,8.60
2018-06-18T03:41:38.325Z,10.13
2018-06-18T03:44:09.101Z,8.10
2018-06-18T03:46:37.218Z,8.60
2018-06-18T03:49:05.385Z,7.87
2018-06-18T03:51:33.512Z,8.27
2018-06-18T03:54:01.579Z,8.97
2018-06-18T03:56:29.637Z,9.00
2018-06-18T03:58:57.714Z,9.23
2018-06-18T04:02:05.366Z,7.90
2018-06-18T04:04:45.925Z,9.50
2018-06-18T04:07:21.055Z,8.63
2018-06-18T04:09:54.582Z,9.63
2018-06-18T04:12:22.731Z,9.10
2018-06-18T04:14:50.742Z,9.60
2018-06-18T04:17:18.816Z,8.90
2018-06-18T04:19:46.874Z,9.40
2018-06-18T04:22:15.561Z,10.73
2018-06-18T04:24:43.717Z,9.43
2018-06-18T04:27:11.753Z,9.10
2018-06-18T04:29:39.814Z,10.30
2018-06-18T04:32:07.893Z,9.97
2018-06-18T04:34:39.634Z,10.00
2018-06-18T04:37:07.719Z,10.50
2018-06-18T04:39:35.813Z,10.43
2018-06-18T04:42:09.202Z,11.30
2018-06-18T04:44:43.002Z,10.70
2018-06-18T04:47:16.362Z,10.30
2018-06-18T04:49:49.786Z,11.43
2018-06-18T04:52:17.851Z,10.63
2018-06-18T04:54:45.994Z,10.10
2018-06-18T04:57:14.041Z,11.20
2018-06-18T05:01:49.286Z,10.87
2018-06-18T05:04:17.337Z,10.63
2018-06-18T05:06:45.409Z,10.83
2018-06-18T05:10:20.517Z,9.97
2018-06-18T05:12:48.877Z,11.67
2018-06-18T05:15:17.569Z,10.47
2018-06-18T05:17:45.833Z,13.00
2018-06-18T05:20:13.981Z,12.07
2018-06-18T05:22:42.053Z,11.43
2018-06-18T05:25:10.139Z,11.07
2018-06-18T05:27:38.194Z,11.93
2018-06-18T05:30:12.634Z,11.27
2018-06-18T05:32:40.921Z,11.37
2018-06-18T05:35:10.301Z,11.03
2018-06-18T05:39:53.210Z,11.87
2018-06-18T05:42:21.342Z,9.77
2018-06-18T05:44:49.423Z,12.13
2018-06-18T05:47:17.478Z,11.00
2018-06-18T05:49:45.560Z,11.00
2018-06-18T05:52:13.588Z,10.27
2018-06-18T05:54:41.690Z,10.03
2018-06-18T05:57:09.754Z,11.50
2018-06-18T05:59:37.817Z,10.50
2018-06-18T06:02:05.920Z,10.33
2018-06-18T06:04:34.077Z,10.83
2018-06-18T06:07:02.134Z,11.60
2018-06-18T06:09:30.217Z,9.97
2018-06-18T06:11:58.273Z,9.00
2018-06-18T06:14:26.349Z,8.70
2018-06-18T06:16:54.411Z,8.70
2018-06-18T06:19:22.470Z,8.60
2018-06-18T06:21:50.534Z,9.57
2018-06-18T06:24:18.738Z,10.60
2018-06-18T06:26:46.805Z,9.03
2018-06-18T06:29:14.670Z,9.00
2018-06-18T06:31:42.838Z,8.80
2018-06-18T06:34:11.049Z,11.57
2018-06-18T06:36:39.064Z,7.80
2018-06-18T06:39:08.905Z,8.83
2018-06-18T06:41:37.181Z,9.47
2018-06-18T06:44:05.317Z,8.07
2018-06-18T06:46:33.381Z,9.03
2018-06-18T06:49:01.498Z,7.67
2018-06-18T06:51:29.599Z,8.40
2018-06-18T06:53:57.773Z,8.13
2018-06-18T06:56:26.329Z,7.60
2018-06-18T06:58:54.431Z,7.63
2018-06-18T07:01:22.509Z,8.57
2018-06-18T07:03:50.555Z,7.80
2018-06-18T07:06:18.638Z,7.13
2018-06-18T07:08:46.698Z,6.63
2018-06-18T07:11:15.289Z,6.90
2018-06-18T07:13:43.410Z,6.33
2018-06-18T07:16:11.437Z,6.10
2018-06-18T07:18:39.533Z,6.87
2018-06-18T07:21:07.679Z,7.00
2018-06-18T07:23:35.722Z,7.10
2018-06-18T07:26:03.933Z,7.50
2018-06-18T07:28:31.930Z,7.60
2018-06-18T07:31:00.025Z,7.50
2018-06-18T07:33:28.077Z,6.87
2018-06-18T07:35:57.026Z,7.53
2018-06-18T07:38:25.428Z,6.23
2018-06-18T07:40:53.458Z,5.77
2018-06-18T07:43:21.633Z,6.23
2018-06-18T07:45:49.565Z,7.07
2018-06-18T07:48:17.665Z,7.43
2018-06-18T07:50:45.770Z,5.97
2018-06-18T07:53:13.889Z,7.00
2018-06-18T07:55:41.755Z,6.57
2018-06-18T07:58:09.802Z,6.30
2018-06-18T08:00:37.864Z,6.60
2018-06-18T08:03:06.226Z,6.03
2018-06-18T08:05:34.321Z,5.33
2018-06-18T08:08:02.389Z,5.70
2018-06-18T08:10:30.461Z,5.60
2018-06-18T08:12:58.533Z,5.90
2018-06-18T08:15:26.593Z,5.40
2018-06-18T08:17:54.654Z,6.77
2018-06-18T08:20:22.931Z,5.07
2018-06-18T08:22:50.973Z,7.10
2018-06-18T08:25:19.093Z,6.10
2018-06-18T08:27:47.153Z,6.50
2018-06-18T08:30:15.217Z,6.03
2018-06-18T08:32:43.090Z,6.33
2018-06-18T08:35:11.146Z,5.10
2018-06-18T08:37:39.246Z,5.00
2018-06-18T08:40:07.354Z,4.53
2018-06-18T08:42:35.403Z,4.50
2018-06-18T08:45:03.500Z,5.47
2018-06-18T08:47:31.577Z,4.23
2018-06-18T08:50:05.106Z,4.57
2018-06-18T08:52:38.569Z,5.93
2018-06-18T08:55:11.846Z,5.20
2018-06-18T08:57:45.384Z,4.83
2018-06-18T09:00:18.953Z,4.43
2018-06-18T09:02:48.038Z,4.50
2018-06-18T09:05:18.537Z,5.60
2018-06-18T09:07:51.976Z,5.60
2018-06-18T09:10:19.988Z,6.03
2018-06-18T09:12:48.049Z,5.70
2018-06-18T09:15:16.170Z,6.37
2018-06-18T09:17:44.420Z,6.03
2018-06-18T09:20:12.494Z,7.30
2018-06-18T09:22:40.566Z,6.17
2018-06-18T09:25:08.533Z,7.23
2018-06-18T09:27:36.607Z,7.03
2018-06-18T09:30:10.097Z,7.20
2018-06-18T09:32:38.419Z,8.93
2018-06-18T09:35:06.467Z,8.83
2018-06-18T09:37:34.663Z,8.97
2018-06-18T09:40:02.900Z,8.70
2018-06-18T09:42:31.276Z,9.37
2018-06-18T09:44:59.342Z,9.77
2018-06-18T09:47:27.413Z,8.97
2018-06-18T09:50:00.833Z,9.70
2018-06-18T09:52:34.489Z,9.53
2018-06-18T09:55:08.009Z,9.50
2018-06-18T09:57:41.404Z,9.43
2018-06-18T10:00:20.961Z,10.17
2018-06-18T10:02:49.199Z,10.60
2018-06-18T10:05:17.459Z,10.03
2018-06-18T10:07:45.521Z,10.00
2018-06-18T10:10:13.595Z,9.93
2018-06-18T10:12:41.638Z,9.53
2018-06-18T10:15:09.709Z,10.17
2018-06-18T10:17:37.750Z,10.20
2018-06-18T10:20:05.846Z,8.33
2018-06-18T10:22:33.940Z,8.10
2018-06-18T10:25:02.003Z,6.60
2018-06-18T10:27:30.054Z,6.50
2018-06-18T10:29:58.126Z,5.57
2018-06-18T10:32:31.694Z,6.17
2018-06-18T10:35:05.261Z,6.73
2018-06-18T10:37:38.780Z,7.20
2018-06-18T10:40:12.446Z,7.67
2018-06-18T10:42:45.953Z,6.60
2018-06-18T10:45:14.036Z,6.70
2018-06-18T10:47:42.074Z,7.00
2018-06-18T10:50:10.178Z,6.93
2018-06-18T10:52:38.238Z,6.27
2018-06-18T10:55:06.292Z,6.00
2018-06-18T10:57:35.018Z,6.90
2018-06-18T11:00:04.667Z,6.70
2018-06-18T11:02:32.760Z,6.70
2018-06-18T11:05:01.650Z,6.90
2018-06-18T11:07:29.757Z,6.70
2018-06-18T11:09:57.805Z,6.50
2018-06-18T11:12:25.863Z,6.20
2018-06-18T11:14:53.785Z,5.80
2018-06-18T11:17:27.334Z,6.07
2018-06-18T11:20:00.462Z,4.80
2018-06-18T11:22:33.889Z,5.87
2018-06-18T11:25:07.520Z,5.27
2018-06-18T11:27:35.561Z,5.53
2018-06-18T11:30:03.942Z,5.07
2018-06-18T11:32:31.964Z,5.30
2018-06-18T11:35:00.045Z,6.00
2018-06-18T11:37:28.061Z,6.67
2018-06-18T11:39:56.138Z,5.80
2018-06-18T11:42:24.191Z,5.03
2018-06-18T11:44:52.247Z,4.33
2018-06-18T11:47:20.343Z,4.70
2018-06-18T11:49:48.463Z,5.53
2018-06-18T11:52:16.554Z,5.17
2018-06-18T11:54:44.652Z,4.63
2018-06-18T11:57:12.699Z,5.47
2018-06-18T11:59:46.254Z,4.50
2018-06-18T12:02:19.675Z,4.40
2018-06-18T12:04:53.210Z,3.77
2018-06-18T12:07:26.740Z,4.27
2018-06-18T12:09:55.262Z,4.10
2018-06-18T12:12:23.234Z,6.90
2018-06-18T12:14:51.317Z,5.60
2018-06-18T12:17:19.370Z,3.80
2018-06-18T12:19:47.442Z,4.80
2018-06-18T12:22:15.512Z,4.43
2018-06-18T12:24:43.567Z,4.57
2018-06-18T12:27:14.877Z,3.93
2018-06-18T12:29:42.924Z,3.40
2018-06-18T12:32:11.010Z,5.70
2018-06-18T12:34:39.054Z,3.83
2018-06-18T12:37:07.209Z,4.50
2018-06-18T12:39:35.253Z,4.00
2018-06-18T12:42:04.861Z,5.07
2018-06-18T12:46:42.363Z,4.03
2018-06-18T12:49:15.709Z,5.00
2018-06-18T12:51:49.257Z,5.13
2018-06-18T12:54:22.783Z,5.40
2018-06-18T12:56:56.538Z,5.17
2018-06-18T12:59:24.582Z,4.80
2018-06-18T13:02:01.301Z,5.17
2018-06-18T13:04:31.317Z,5.27
2018-06-18T13:06:59.361Z,5.73
2018-06-18T13:09:27.432Z,5.83
2018-06-18T13:11:55.906Z,4.50
2018-06-18T13:14:23.989Z,4.70
2018-06-18T13:16:58.770Z,4.57
2018-06-18T13:19:26.826Z,5.47
2018-06-18T13:21:54.897Z,6.47
2018-06-18T13:24:22.947Z,5.77
2018-06-18T13:26:51.010Z,6.40
2018-06-18T13:29:19.066Z,6.07
2018-06-18T13:31:47.135Z,8.20
2018-06-18T13:34:15.180Z,5.93
2018-06-18T13:36:43.265Z,6.00
2018-06-18T13:39:17.026Z,6.87
2018-06-18T13:41:50.750Z,6.40
2018-06-18T13:44:24.069Z,6.87
2018-06-18T13:46:57.569Z,7.43
2018-06-18T13:49:29.892Z,6.60
2018-06-18T13:51:58.027Z,7.13
2018-06-18T13:54:26.069Z,6.93
2018-06-18T13:56:54.161Z,6.60
2018-06-18T13:59:22.213Z,8.43
2018-06-18T14:01:50.312Z,8.20
2018-06-18T14:04:18.449Z,8.60
2018-06-18T14:06:46.514Z,10.70
2018-06-18T14:09:14.595Z,10.03
2018-06-18T14:11:42.648Z,11.07
2018-06-18T14:14:10.722Z,13.53
2018-06-18T14:16:38.981Z,11.10
2018-06-18T14:19:12.390Z,13.33
2018-06-18T14:21:40.449Z,11.83
2018-06-18T14:24:08.530Z,10.90
2018-06-18T14:26:36.686Z,11.10
2018-06-18T14:29:04.814Z,12.77
2018-06-18T14:31:38.815Z,10.83
2018-06-18T14:34:12.345Z,11.03
2018-06-18T14:36:45.887Z,12.57
2018-06-18T14:40:18.879Z,12.87
2018-06-18T14:42:46.945Z,10.77
2018-06-18T14:45:15.231Z,10.33
2018-06-18T14:47:43.730Z,9.87
2018-06-18T14:50:11.781Z,8.80
2018-06-18T14:52:40.029Z,9.17
2018-06-18T14:55:09.302Z,8.60
2018-06-18T14:57:37.361Z,8.20
2018-06-18T15:00:15.965Z,9.00
2018-06-18T15:02:44.063Z,8.70
2018-06-18T15:05:12.105Z,7.83
2018-06-18T15:07:40.377Z,8.03
2018-06-18T15:10:08.614Z,8.30
2018-06-18T15:12:43.864Z,9.20
2018-06-18T15:15:17.378Z,7.80
2018-06-18T15:17:45.433Z,7.87
2018-06-18T15:20:14.515Z,7.20
2018-06-18T15:22:46.449Z,6.80
2018-06-18T15:25:14.849Z,7.20
2018-06-18T15:27:42.881Z,6.30
2018-06-18T15:30:11.245Z,6.83
2018-06-18T15:32:39.333Z,6.60
2018-06-18T15:35:07.385Z,6.80
2018-06-18T15:37:36.145Z,6.80
2018-06-18T15:40:04.329Z,7.20
2018-06-18T15:42:32.417Z,6.80
2018-06-18T15:45:00.540Z,5.80
2018-06-18T15:47:28.632Z,5.67
2018-06-18T15:49:56.708Z,5.20
2018-06-18T15:52:24.780Z,5.40
2018-06-18T15:54:52.847Z,5.50
2018-06-18T15:57:20.942Z,5.20
2018-06-18T15:59:48.977Z,6.20
2018-06-18T16:02:17.094Z,6.40
2018-06-18T16:04:45.165Z,5.83
2018-06-18T16:07:13.209Z,4.97
2018-06-18T16:09:41.285Z,6.67
2018-06-18T16:12:09.373Z,7.53
2018-06-18T16:14:37.426Z,7.20
2018-06-18T16:17:05.478Z,6.70
2018-06-18T16:19:33.540Z,7.10
2018-06-18T16:22:01.614Z,7.47
2018-06-18T16:24:29.661Z,6.40
2018-06-18T16:26:57.717Z,6.50
2018-06-18T16:29:25.773Z,6.00
2018-06-18T16:31:53.830Z,6.73
2018-06-18T16:34:21.894Z,6.97
2018-06-18T16:36:49.946Z,7.30
2018-06-18T16:39:18.042Z,7.50
2018-06-18T16:41:46.115Z,6.30
2018-06-18T16:44:14.225Z,5.67
2018-06-18T16:46:42.278Z,6.23
2018-06-18T16:49:10.342Z,6.57
2018-06-18T16:51:38.379Z,6.30
2018-06-18T16:54:06.451Z,6.13
2018-06-18T16:56:34.889Z,6.50
2018-06-18T16:59:03.090Z,5.80
2018-06-18T17:01:31.156Z,5.27
2018-06-18T17:03:59.202Z,5.50
2018-06-18T17:06:27.124Z,6.20
2018-06-18T17:08:55.720Z,5.73
2018-06-18T17:11:23.770Z,6.17
2018-06-18T17:13:52.137Z,6.33
2018-06-18T17:16:20.177Z,6.13
2018-06-18T17:18:48.233Z,6.40
2018-06-18T17:21:16.273Z,7.07
2018-06-18T17:23:44.321Z,5.70
2018-06-18T17:26:12.385Z,7.00
2018-06-18T17:28:40.494Z,6.60
2018-06-18T17:31:08.597Z,6.77
2018-06-18T17:33:36.517Z,6.47
2018-06-18T17:36:04.714Z,7.53
2018-06-18T17:38:32.813Z,6.20
2018-06-18T17:41:00.663Z,7.97
2018-06-18T17:43:28.729Z,7.60
2018-06-18T17:45:56.781Z,7.40
2018-06-18T17:48:24.857Z,6.87
2018-06-18T17:50:52.922Z,7.30
2018-06-18T17:53:20.978Z,7.10
2018-06-18T17:55:49.048Z,6.97
2018-06-18T17:58:17.111Z,6.77
2018-06-18T18:00:45.183Z,7.10
2018-06-18T18:03:13.262Z,6.60
2018-06-18T18:05:41.356Z,6.00
2018-06-18T18:08:09.392Z,6.00
2018-06-18T18:10:37.793Z,9.17
2018-06-18T18:13:06.011Z,6.40
2018-06-18T18:15:34.253Z,6.20
2018-06-18T18:18:02.728Z,7.10
2018-06-18T18:20:31.026Z,5.40
2018-06-18T18:22:59.372Z,6.30
2018-06-18T18:25:27.449Z,6.50
2018-06-18T18:27:55.564Z,6.63
2018-06-18T18:30:23.613Z,6.10
2018-06-18T18:32:51.859Z,6.47
2018-06-18T18:35:19.952Z,8.43
2018-06-18T18:37:48.039Z,8.27
2018-06-18T18:40:16.993Z,10.20
2018-06-18T18:42:45.265Z,8.97
2018-06-18T18:45:13.325Z,10.83
2018-06-18T18:47:41.458Z,11.60
2018-06-18T18:50:09.546Z,10.33
2018-06-18T18:52:37.593Z,11.30
2018-06-18T18:55:44.584Z,10.00
2018-06-18T18:58:24.014Z,9.17
2018-06-18T19:00:52.566Z,11.27
2018-06-18T19:03:22.518Z,11.00
2018-06-18T19:05:51.363Z,13.87
2018-06-18T19:08:21.938Z,12.27
2018-06-18T19:10:49.990Z,12.17
2018-06-18T19:13:20.493Z,13.50
2018-06-18T19:15:50.441Z,11.90
2018-06-18T19:18:18.529Z,12.47
2018-06-18T19:20:50.475Z,12.97
2018-06-18T19:23:18.595Z,13.10
2018-06-18T19:25:46.709Z,14.60
2018-06-18T19:28:14.727Z,15.33
2018-06-18T19:30:45.531Z,14.77
2018-06-18T19:33:20.134Z,13.87
2018-06-18T19:35:48.174Z,13.30
2018-06-18T19:38:16.258Z,17.20
2018-06-18T19:40:44.329Z,14.80
2018-06-18T19:43:12.566Z,13.70
2018-06-18T19:45:44.791Z,13.17
2018-06-18T19:48:18.613Z,13.70
2018-06-18T19:50:46.685Z,13.37
2018-06-18T19:53:14.721Z,13.47
2018-06-18T19:55:42.844Z,13.50
2018-06-18T19:58:10.888Z,12.00
2018-06-18T20:00:41.689Z,14.03
2018-06-18T20:03:09.754Z,13.70
2018-06-18T20:05:38.722Z,14.20
2018-06-18T20:08:09.133Z,13.97
2018-06-18T20:10:37.202Z,12.10
2018-06-18T20:13:05.418Z,14.03
2018-06-18T20:15:33.485Z,14.13
2018-06-18T20:18:01.557Z,12.03
2018-06-18T20:20:29.658Z,12.63
2018-06-18T20:22:57.734Z,13.10
2018-06-18T20:25:29.541Z,11.30
2018-06-18T20:27:57.605Z,11.93
2018-06-18T20:30:25.666Z,10.63
2018-06-18T20:32:53.730Z,11.10
2018-06-18T20:35:27.081Z,10.83
2018-06-18T20:37:55.229Z,11.03
2018-06-18T20:40:23.441Z,12.17
2018-06-18T20:42:51.856Z,11.70
2018-06-18T20:45:19.891Z,11.27
2018-06-18T20:47:47.985Z,11.10
2018-06-18T20:50:16.701Z,12.13
2018-06-18T20:52:50.685Z,11.27
2018-06-18T20:55:18.741Z,11.93
2018-06-18T20:57:46.815Z,11.60
2018-06-18T21:00:14.934Z,12.07
2018-06-18T21:02:43.089Z,12.30
2018-06-18T21:05:11.148Z,11.97
2018-06-18T21:07:39.139Z,10.87
2018-06-18T21:10:07.217Z,14.57
2018-06-18T21:12:35.611Z,13.20
2018-06-18T21:15:03.747Z,14.80
2018-06-18T21:17:31.853Z,11.90
2018-06-18T21:19:59.939Z,12.60
2018-06-18T21:22:27.985Z,13.03
2018-06-18T21:24:57.049Z,11.57
2018-06-18T21:27:25.126Z,13.53
2018-06-18T21:29:53.210Z,17.60
2018-06-18T21:32:21.273Z,12.03
2018-06-18T21:34:49.492Z,13.00
2018-06-18T21:37:17.542Z,13.60
2018-06-18T21:39:45.606Z,16.37
2018-06-18T21:42:13.656Z,13.70
2018-06-18T21:44:45.799Z,13.93
2018-06-18T21:47:13.885Z,14.70
2018-06-18T21:49:41.951Z,14.60
2018-06-18T21:52:09.993Z,15.30
2018-06-18T21:54:38.083Z,14.00
2018-06-18T21:57:06.137Z,13.47
2018-06-18T21:59:33.977Z,13.60
2018-06-18T22:02:02.057Z,14.10
2018-06-18T22:04:30.133Z,14.43
2018-06-18T22:06:58.194Z,12.53
2018-06-18T22:09:26.266Z,12.73
2018-06-18T22:11:55.214Z,14.27
2018-06-18T22:14:24.148Z,13.63
2018-06-18T22:16:52.258Z,13.80
2018-06-18T22:19:20.300Z,13.10
2018-06-18T22:21:48.577Z,12.53
2018-06-18T22:24:16.640Z,12.27
2018-06-18T22:26:44.934Z,12.77
2018-06-18T22:29:13.847Z,13.93
2018-06-18T22:31:41.901Z,13.00
2018-06-18T22:34:10.026Z,12.67
2018-06-18T22:36:37.818Z,13.40
2018-06-18T22:39:08.410Z,12.40
2018-06-18T22:41:36.465Z,12.13
2018-06-18T22:44:04.706Z,12.57
2018-06-18T22:46:32.767Z,13.40
2018-06-18T22:49:00.806Z,10.90
2018-06-18T22:51:28.873Z,13.40
2018-06-18T22:53:56.958Z,13.60
2018-06-18T22:56:25.026Z,13.43
2018-06-18T22:58:53.092Z,12.77
2018-06-18T23:01:21.149Z,12.70
2018-06-18T23:03:49.202Z,12.37
2018-06-18T23:06:17.245Z,12.83
2018-06-18T23:08:45.325Z,12.17
2018-06-18T23:11:13.394Z,13.20
2018-06-18T23:13:41.442Z,12.70
2018-06-18T23:16:09.701Z,14.10
2018-06-18T23:18:37.757Z,12.60
2018-06-18T23:21:05.868Z,13.00
2018-06-18T23:40:45.867Z,14.50
2018-06-18T23:43:14.103Z,15.03
2018-06-18T23:45:42.128Z,14.23
2018-06-18T23:48:10.188Z,13.97
2018-06-18T23:50:38.233Z,14.80
2018-06-18T23:53:06.305Z,13.67
2018-06-18T23:55:34.369Z,13.87
2018-06-18T23:58:02.428Z,13.47
